sensor_id;sensor_type;location;lat;lon;timestamp;pressure;altitude;pressure_sealevel;temperature;humidity
45523;BME280;31254;51.680;5.394;2022-11-15T00:01:10;100865.56;;;8.01;86.13
45523;BME280;31254;51.680;5.394;2022-11-15T00:03:40;100860.13;;;8.01;86.11
45523;BME280;31254;51.680;5.394;2022-11-15T00:06:07;100860.59;;;8.06;86.11
45523;BME280;31254;51.680;5.394;2022-11-15T00:08:39;100851.00;;;8.02;86.42
45523;BME280;31254;51.680;5.394;2022-11-15T00:11:05;100855.47;;;8.03;86.34
45523;BME280;31254;51.680;5.394;2022-11-15T00:13:32;100870.34;;;8.09;86.64
45523;BME280;31254;51.680;5.394;2022-11-15T00:16:00;100853.84;;;8.01;86.67
45523;BME280;31254;51.680;5.394;2022-11-15T00:18:32;100864.78;;;8.11;86.70
45523;BME280;31254;51.680;5.394;2022-11-15T00:21:07;100862.78;;;8.13;86.68
45523;BME280;31254;51.680;5.394;2022-11-15T00:23:33;100855.78;;;8.10;86.53
45523;BME280;31254;51.680;5.394;2022-11-15T00:26:00;100862.53;;;8.16;86.57
45523;BME280;31254;51.680;5.394;2022-11-15T00:28:27;100860.38;;;8.19;86.89
45523;BME280;31254;51.680;5.394;2022-11-15T00:31:00;100863.72;;;8.23;86.95
45523;BME280;31254;51.680;5.394;2022-11-15T00:33:29;100859.00;;;8.25;87.08
45523;BME280;31254;51.680;5.394;2022-11-15T00:36:00;100854.41;;;8.26;86.90
45523;BME280;31254;51.680;5.394;2022-11-15T00:38:34;100848.13;;;8.25;86.80
45523;BME280;31254;51.680;5.394;2022-11-15T00:41:02;100851.16;;;8.32;87.19
45523;BME280;31254;51.680;5.394;2022-11-15T00:43:35;100852.91;;;8.33;87.27
45523;BME280;31254;51.680;5.394;2022-11-15T00:46:02;100854.47;;;8.35;86.83
45523;BME280;31254;51.680;5.394;2022-11-15T00:48:29;100845.47;;;8.35;86.98
45523;BME280;31254;51.680;5.394;2022-11-15T00:50:56;100840.75;;;8.37;87.15
45523;BME280;31254;51.680;5.394;2022-11-15T00:53:23;100840.47;;;8.40;87.31
45523;BME280;31254;51.680;5.394;2022-11-15T00:55:52;100840.09;;;8.45;87.24
45523;BME280;31254;51.680;5.394;2022-11-15T00:58:19;100804.50;;;8.27;87.59
45523;BME280;31254;51.680;5.394;2022-11-15T01:00:45;100835.13;;;8.50;87.60
45523;BME280;31254;51.680;5.394;2022-11-15T01:03:12;100834.13;;;8.51;87.33
45523;BME280;31254;51.680;5.394;2022-11-15T01:05:40;100823.97;;;8.53;87.65
45523;BME280;31254;51.680;5.394;2022-11-15T01:08:12;100823.97;;;8.53;87.66
45523;BME280;31254;51.680;5.394;2022-11-15T01:10:39;100827.84;;;8.60;87.40
45523;BME280;31254;51.680;5.394;2022-11-15T01:13:06;100830.44;;;8.62;87.90
45523;BME280;31254;51.680;5.394;2022-11-15T01:15:33;100828.31;;;8.65;88.01
45523;BME280;31254;51.680;5.394;2022-11-15T01:17:59;100835.31;;;8.68;87.86
45523;BME280;31254;51.680;5.394;2022-11-15T01:20:28;100817.44;;;8.65;87.51
45523;BME280;31254;51.680;5.394;2022-11-15T01:22:55;100815.44;;;8.67;87.61
45523;BME280;31254;51.680;5.394;2022-11-15T01:25:21;100815.59;;;8.75;87.73
45523;BME280;31254;51.680;5.394;2022-11-15T01:27:48;100809.88;;;8.78;88.29
45523;BME280;31254;51.680;5.394;2022-11-15T01:30:15;100819.47;;;8.83;88.08
45523;BME280;31254;51.680;5.394;2022-11-15T01:32:44;100815.50;;;8.87;88.28
45523;BME280;31254;51.680;5.394;2022-11-15T01:35:10;100807.06;;;8.90;88.32
45523;BME280;31254;51.680;5.394;2022-11-15T01:37:37;100797.00;;;8.90;88.15
45523;BME280;31254;51.680;5.394;2022-11-15T01:40:06;100803.78;;;8.96;88.06
45523;BME280;31254;51.680;5.394;2022-11-15T01:42:33;100799.75;;;9.00;88.24
45523;BME280;31254;51.680;5.394;2022-11-15T01:45:02;100813.94;;;9.04;88.25
45523;BME280;31254;51.680;5.394;2022-11-15T01:47:39;100801.91;;;9.06;88.79
45523;BME280;31254;51.680;5.394;2022-11-15T01:50:15;100795.78;;;9.14;88.52
45523;BME280;31254;51.680;5.394;2022-11-15T01:52:42;100801.78;;;9.18;88.35
45523;BME280;31254;51.680;5.394;2022-11-15T01:55:22;100799.63;;;9.21;88.34
45523;BME280;31254;51.680;5.394;2022-11-15T01:57:54;100797.34;;;9.26;88.60
45523;BME280;31254;51.680;5.394;2022-11-15T02:00:21;100798.78;;;9.30;88.50
45523;BME280;31254;51.680;5.394;2022-11-15T02:02:48;100805.69;;;9.35;88.46
45523;BME280;31254;51.680;5.394;2022-11-15T02:05:18;100801.66;;;9.39;88.84
45523;BME280;31254;51.680;5.394;2022-11-15T02:07:44;100793.34;;;9.40;89.00
45523;BME280;31254;51.680;5.394;2022-11-15T02:10:17;100785.31;;;9.39;89.52
45523;BME280;31254;51.680;5.394;2022-11-15T02:12:45;100789.03;;;9.47;89.28
45523;BME280;31254;51.680;5.394;2022-11-15T02:15:12;100787.03;;;9.49;89.59
45523;BME280;31254;51.680;5.394;2022-11-15T02:18:18;100759.22;;;9.46;89.84
45523;BME280;31254;51.680;5.394;2022-11-15T02:20:49;100759.06;;;9.47;89.61
45523;BME280;31254;51.680;5.394;2022-11-15T02:23:36;100752.91;;;9.55;89.37
45523;BME280;31254;51.680;5.394;2022-11-15T02:34:56;100748.91;;;9.59;89.76
45523;BME280;31254;51.680;5.394;2022-11-15T02:37:38;100750.31;;;9.63;89.85
45523;BME280;31254;51.680;5.394;2022-11-15T02:42:54;100761.91;;;9.75;89.78
45523;BME280;31254;51.680;5.394;2022-11-15T02:45:44;100744.13;;;9.71;90.40
45523;BME280;31254;51.680;5.394;2022-11-15T02:48:15;100734.81;;;9.74;89.90
45523;BME280;31254;51.680;5.394;2022-11-15T02:50:45;100748.56;;;9.82;90.27
45523;BME280;31254;51.680;5.394;2022-11-15T02:53:14;100734.78;;;9.83;90.53
45523;BME280;31254;51.680;5.394;2022-11-15T02:55:44;100731.78;;;9.86;90.30
45523;BME280;31254;51.680;5.394;2022-11-15T03:01:15;100732.19;;;9.92;90.76
45523;BME280;31254;51.680;5.394;2022-11-15T03:06:55;100733.59;;;9.96;90.38
45523;BME280;31254;51.680;5.394;2022-11-15T03:09:34;100739.44;;;10.01;90.91
45523;BME280;31254;51.680;5.394;2022-11-15T03:12:28;100737.31;;;10.04;90.64
45523;BME280;31254;51.680;5.394;2022-11-15T03:15:00;100732.56;;;10.06;90.60
45523;BME280;31254;51.680;5.394;2022-11-15T03:17:34;100731.41;;;10.09;91.02
45523;BME280;31254;51.680;5.394;2022-11-15T03:20:06;100730.09;;;10.13;91.21
45523;BME280;31254;51.680;5.394;2022-11-15T03:22:36;100725.22;;;10.07;91.23
45523;BME280;31254;51.680;5.394;2022-11-15T03:25:07;100733.66;;;10.14;91.04
45523;BME280;31254;51.680;5.394;2022-11-15T03:27:41;100738.53;;;10.20;91.37
45523;BME280;31254;51.680;5.394;2022-11-15T03:30:09;100737.66;;;10.19;91.65
45523;BME280;31254;51.680;5.394;2022-11-15T03:32:53;100746.25;;;10.24;91.84
45523;BME280;31254;51.680;5.394;2022-11-15T03:35:27;100738.78;;;10.27;91.73
45523;BME280;31254;51.680;5.394;2022-11-15T03:38:13;100738.47;;;10.30;91.95
45523;BME280;31254;51.680;5.394;2022-11-15T03:40:45;100739.34;;;10.30;91.93
45523;BME280;31254;51.680;5.394;2022-11-15T03:43:29;100736.44;;;10.32;91.79
45523;BME280;31254;51.680;5.394;2022-11-15T03:46:13;100726.16;;;10.35;91.89
45523;BME280;31254;51.680;5.394;2022-11-15T03:48:44;100729.72;;;10.36;92.07
45523;BME280;31254;51.680;5.394;2022-11-15T03:51:13;100718.53;;;10.29;92.20
45523;BME280;31254;51.680;5.394;2022-11-15T03:53:41;100723.84;;;10.31;92.60
45523;BME280;31254;51.680;5.394;2022-11-15T03:56:07;100722.81;;;10.32;92.66
45523;BME280;31254;51.680;5.394;2022-11-15T03:58:34;100736.63;;;10.40;92.80
45523;BME280;31254;51.680;5.394;2022-11-15T04:01:00;100734.59;;;10.42;92.82
45523;BME280;31254;51.680;5.394;2022-11-15T04:03:27;100726.41;;;10.42;92.89
45523;BME280;31254;51.680;5.394;2022-11-15T04:05:54;100732.69;;;10.42;93.01
45523;BME280;31254;51.680;5.394;2022-11-15T04:08:23;100727.41;;;10.41;93.10
45523;BME280;31254;51.680;5.394;2022-11-15T04:10:49;100734.34;;;10.35;93.62
45523;BME280;31254;51.680;5.394;2022-11-15T04:13:16;100730.72;;;10.35;93.59
45523;BME280;31254;51.680;5.394;2022-11-15T04:15:42;100732.75;;;10.33;93.99
45523;BME280;31254;51.680;5.394;2022-11-15T04:18:09;100731.75;;;10.34;93.88
45523;BME280;31254;51.680;5.394;2022-11-15T04:20:36;100736.03;;;10.36;93.86
45523;BME280;31254;51.680;5.394;2022-11-15T04:23:22;100727.41;;;10.41;93.89
45523;BME280;31254;51.680;5.394;2022-11-15T04:26:14;100734.44;;;10.43;93.80
45523;BME280;31254;51.680;5.394;2022-11-15T04:28:44;100737.00;;;10.45;93.76
45523;BME280;31254;51.680;5.394;2022-11-15T04:31:30;100728.69;;;10.47;93.63
45523;BME280;31254;51.680;5.394;2022-11-15T04:33:58;100702.03;;;10.31;94.02
45523;BME280;31254;51.680;5.394;2022-11-15T04:36:25;100716.75;;;10.48;94.00
45523;BME280;31254;51.680;5.394;2022-11-15T04:39:10;100727.50;;;10.49;94.12
45523;BME280;31254;51.680;5.394;2022-11-15T04:41:37;100720.34;;;10.48;93.68
45523;BME280;31254;51.680;5.394;2022-11-15T04:44:03;100730.81;;;10.53;94.16
45523;BME280;31254;51.680;5.394;2022-11-15T04:46:30;100721.03;;;10.50;94.18
45523;BME280;31254;51.680;5.394;2022-11-15T04:48:57;100724.16;;;10.55;94.50
45523;BME280;31254;51.680;5.394;2022-11-15T04:51:25;100722.78;;;10.51;94.18
45523;BME280;31254;51.680;5.394;2022-11-15T04:53:52;100728.63;;;10.56;94.14
45523;BME280;31254;51.680;5.394;2022-11-15T04:56:19;100733.94;;;10.58;94.40
45523;BME280;31254;51.680;5.394;2022-11-15T04:58:48;100722.44;;;10.54;94.49
45523;BME280;31254;51.680;5.394;2022-11-15T05:01:15;100726.75;;;10.57;94.39
45523;BME280;31254;51.680;5.394;2022-11-15T05:03:43;100742.19;;;10.66;94.63
45523;BME280;31254;51.680;5.394;2022-11-15T05:06:31;100731.13;;;10.68;94.41
45523;BME280;31254;51.680;5.394;2022-11-15T05:08:58;100728.56;;;10.66;94.24
45523;BME280;31254;51.680;5.394;2022-11-15T05:11:24;100725.38;;;10.71;94.76
45523;BME280;31254;51.680;5.394;2022-11-15T05:13:51;100722.78;;;10.69;94.32
45523;BME280;31254;51.680;5.394;2022-11-15T05:16:17;100729.50;;;10.75;94.64
45523;BME280;31254;51.680;5.394;2022-11-15T05:18:44;100732.38;;;10.73;94.56
45523;BME280;31254;51.680;5.394;2022-11-15T05:21:13;100728.34;;;10.77;94.84
45523;BME280;31254;51.680;5.394;2022-11-15T05:23:41;100726.31;;;10.79;94.93
45523;BME280;31254;51.680;5.394;2022-11-15T05:26:08;100707.81;;;10.73;94.99
45523;BME280;31254;51.680;5.394;2022-11-15T05:28:36;100724.28;;;10.82;94.94
45523;BME280;31254;51.680;5.394;2022-11-15T05:31:08;100714.94;;;10.84;95.06
45523;BME280;31254;51.680;5.394;2022-11-15T05:33:39;100713.22;;;10.83;95.09
45523;BME280;31254;51.680;5.394;2022-11-15T05:36:29;100716.63;;;10.85;94.97
45523;BME280;31254;51.680;5.394;2022-11-15T05:38:57;100714.78;;;10.86;95.09
45523;BME280;31254;51.680;5.394;2022-11-15T05:41:33;100727.09;;;10.90;95.14
45523;BME280;31254;51.680;5.394;2022-11-15T05:44:01;100727.97;;;10.90;95.11
45523;BME280;31254;51.680;5.394;2022-11-15T05:46:29;100717.06;;;10.90;95.12
45523;BME280;31254;51.680;5.394;2022-11-15T05:48:56;100717.19;;;10.89;95.66
45523;BME280;31254;51.680;5.394;2022-11-15T05:51:24;100715.16;;;10.91;95.53
45523;BME280;31254;51.680;5.394;2022-11-15T05:53:52;100716.00;;;10.91;95.41
45523;BME280;31254;51.680;5.394;2022-11-15T05:56:19;100722.34;;;10.92;95.52
45523;BME280;31254;51.680;5.394;2022-11-15T05:58:48;100718.75;;;10.91;95.64
45523;BME280;31254;51.680;5.394;2022-11-15T06:01:14;100714.31;;;10.90;95.81
45523;BME280;31254;51.680;5.394;2022-11-15T06:03:41;100722.19;;;10.93;95.51
45523;BME280;31254;51.680;5.394;2022-11-15T06:06:07;100728.50;;;10.94;95.92
45523;BME280;31254;51.680;5.394;2022-11-15T06:08:41;100726.63;;;10.94;95.86
45523;BME280;31254;51.680;5.394;2022-11-15T06:11:07;100712.19;;;10.84;96.29
45523;BME280;31254;51.680;5.394;2022-11-15T06:13:34;100734.97;;;10.93;96.17
45523;BME280;31254;51.680;5.394;2022-11-15T06:16:01;100741.16;;;10.95;96.10
45523;BME280;31254;51.680;5.394;2022-11-15T06:18:27;100734.13;;;10.92;96.40
45523;BME280;31254;51.680;5.394;2022-11-15T06:20:58;100740.28;;;10.94;96.15
45523;BME280;31254;51.680;5.394;2022-11-15T06:23:25;100736.22;;;10.98;96.24
45523;BME280;31254;51.680;5.394;2022-11-15T06:25:57;100741.53;;;11.00;96.08
45523;BME280;31254;51.680;5.394;2022-11-15T06:28:27;100728.91;;;10.99;96.07
45523;BME280;31254;51.680;5.394;2022-11-15T06:30:54;100739.13;;;10.97;96.25
45523;BME280;31254;51.680;5.394;2022-11-15T06:33:20;100749.56;;;11.02;96.31
45523;BME280;31254;51.680;5.394;2022-11-15T06:35:47;100747.84;;;11.01;96.38
45523;BME280;31254;51.680;5.394;2022-11-15T06:38:16;100718.66;;;10.83;96.21
45523;BME280;31254;51.680;5.394;2022-11-15T06:40:44;100737.38;;;10.96;96.31
45523;BME280;31254;51.680;5.394;2022-11-15T06:43:11;100745.72;;;10.94;96.42
45523;BME280;31254;51.680;5.394;2022-11-15T06:45:38;100748.69;;;11.01;96.50
45523;BME280;31254;51.680;5.394;2022-11-15T06:48:07;100751.28;;;11.03;96.41
45523;BME280;31254;51.680;5.394;2022-11-15T06:50:36;100759.47;;;11.03;96.66
45523;BME280;31254;51.680;5.394;2022-11-15T06:53:04;100749.16;;;10.96;96.56
45523;BME280;31254;51.680;5.394;2022-11-15T06:55:33;100760.50;;;11.02;96.52
45523;BME280;31254;51.680;5.394;2022-11-15T06:58:00;100754.72;;;11.05;96.51
45523;BME280;31254;51.680;5.394;2022-11-15T07:00:26;100763.59;;;11.07;96.72
45523;BME280;31254;51.680;5.394;2022-11-15T07:02:53;100759.16;;;11.06;96.68
45523;BME280;31254;51.680;5.394;2022-11-15T07:05:22;100758.75;;;11.01;96.60
45523;BME280;31254;51.680;5.394;2022-11-15T07:07:55;100763.59;;;11.07;97.08
45523;BME280;31254;51.680;5.394;2022-11-15T07:10:23;100768.38;;;11.05;96.89
45523;BME280;31254;51.680;5.394;2022-11-15T07:12:51;100770.06;;;11.06;96.59
45523;BME280;31254;51.680;5.394;2022-11-15T07:15:22;100765.31;;;11.08;96.77
45523;BME280;31254;51.680;5.394;2022-11-15T07:17:49;100772.50;;;11.09;96.76
45523;BME280;31254;51.680;5.394;2022-11-15T07:20:16;100771.66;;;11.08;96.93
45523;BME280;31254;51.680;5.394;2022-11-15T07:22:45;100768.91;;;11.08;96.67
45523;BME280;31254;51.680;5.394;2022-11-15T07:25:14;100774.22;;;11.10;96.90
45523;BME280;31254;51.680;5.394;2022-11-15T07:27:41;100774.75;;;11.13;97.00
45523;BME280;31254;51.680;5.394;2022-11-15T07:30:08;100771.19;;;11.13;96.82
45523;BME280;31254;51.680;5.394;2022-11-15T07:32:35;100775.47;;;11.15;96.75
45523;BME280;31254;51.680;5.394;2022-11-15T07:35:01;100767.72;;;11.11;96.98
45523;BME280;31254;51.680;5.394;2022-11-15T07:37:28;100765.00;;;11.11;97.22
45523;BME280;31254;51.680;5.394;2022-11-15T07:39:57;100761.03;;;11.05;97.05
45523;BME280;31254;51.680;5.394;2022-11-15T07:42:23;100771.88;;;11.15;97.17
45523;BME280;31254;51.680;5.394;2022-11-15T07:45:08;100769.00;;;11.16;96.96
45523;BME280;31254;51.680;5.394;2022-11-15T07:47:37;100744.19;;;11.10;96.78
45523;BME280;31254;51.680;5.394;2022-11-15T07:50:07;100760.88;;;11.25;96.50
45523;BME280;31254;51.680;5.394;2022-11-15T07:52:33;100763.47;;;11.26;96.71
45523;BME280;31254;51.680;5.394;2022-11-15T07:55:00;100764.16;;;11.28;96.52
45523;BME280;31254;51.680;5.394;2022-11-15T07:57:26;100758.38;;;11.31;96.56
45523;BME280;31254;51.680;5.394;2022-11-15T07:59:53;100758.06;;;11.34;96.34
45523;BME280;31254;51.680;5.394;2022-11-15T08:02:20;100757.53;;;11.31;96.32
45523;BME280;31254;51.680;5.394;2022-11-15T08:04:50;100770.00;;;11.33;96.51
45523;BME280;31254;51.680;5.394;2022-11-15T08:07:17;100761.09;;;11.31;96.65
45523;BME280;31254;51.680;5.394;2022-11-15T08:09:43;100765.25;;;11.36;96.63
45523;BME280;31254;51.680;5.394;2022-11-15T08:12:10;100767.97;;;11.36;96.47
45523;BME280;31254;51.680;5.394;2022-11-15T08:14:39;100771.56;;;11.36;96.62
45523;BME280;31254;51.680;5.394;2022-11-15T08:17:06;100768.28;;;11.32;96.44
45523;BME280;31254;51.680;5.394;2022-11-15T08:19:32;100779.28;;;11.41;96.50
45523;BME280;31254;51.680;5.394;2022-11-15T08:21:59;100780.84;;;11.43;96.20
45523;BME280;31254;51.680;5.394;2022-11-15T08:24:31;100772.00;;;11.49;96.10
45523;BME280;31254;51.680;5.394;2022-11-15T08:27:00;100772.69;;;11.51;96.05
45523;BME280;31254;51.680;5.394;2022-11-15T08:29:29;100773.72;;;11.68;96.76
45523;BME280;31254;51.680;5.394;2022-11-15T08:32:02;100758.31;;;11.67;96.28
45523;BME280;31254;51.680;5.394;2022-11-15T08:34:33;100763.84;;;11.76;95.85
45523;BME280;31254;51.680;5.394;2022-11-15T08:37:07;100764.78;;;11.84;95.24
45523;BME280;31254;51.680;5.394;2022-11-15T08:39:45;100761.56;;;11.89;94.88
45523;BME280;31254;51.680;5.394;2022-11-15T08:42:13;100759.94;;;11.96;94.76
45523;BME280;31254;51.680;5.394;2022-11-15T08:44:46;100755.31;;;11.97;94.47
45523;BME280;31254;51.680;5.394;2022-11-15T08:47:26;100749.31;;;11.93;94.47
45523;BME280;31254;51.680;5.394;2022-11-15T08:49:59;100752.25;;;12.00;94.33
45523;BME280;31254;51.680;5.394;2022-11-15T08:52:37;100743.25;;;12.07;94.19
45523;BME280;31254;51.680;5.394;2022-11-15T08:55:11;100743.94;;;12.10;93.96
45523;BME280;31254;51.680;5.394;2022-11-15T08:57:44;100740.88;;;12.13;93.76
45523;BME280;31254;51.680;5.394;2022-11-15T09:00:19;100741.56;;;12.15;93.57
45523;BME280;31254;51.680;5.394;2022-11-15T09:02:48;100739.34;;;12.10;93.57
45523;BME280;31254;51.680;5.394;2022-11-15T09:05:26;100730.09;;;12.11;93.73
45523;BME280;31254;51.680;5.394;2022-11-15T09:07:55;100742.94;;;12.11;93.86
45523;BME280;31254;51.680;5.394;2022-11-15T09:13:36;100727.88;;;12.15;92.94
45523;BME280;31254;51.680;5.394;2022-11-15T09:16:09;100713.41;;;12.22;92.82
45523;BME280;31254;51.680;5.394;2022-11-15T09:18:44;100713.94;;;12.26;92.26
45523;BME280;31254;51.680;5.394;2022-11-15T09:21:11;100718.94;;;12.39;91.80
45523;BME280;31254;51.680;5.394;2022-11-15T09:23:37;100714.22;;;12.49;91.35
45523;BME280;31254;51.680;5.394;2022-11-15T09:26:05;100714.72;;;12.53;91.46
45523;BME280;31254;51.680;5.394;2022-11-15T09:28:33;100715.59;;;12.61;90.95
45523;BME280;31254;51.680;5.394;2022-11-15T09:31:04;100701.25;;;12.68;90.78
45523;BME280;31254;51.680;5.394;2022-11-15T09:33:31;100708.78;;;12.66;90.55
45523;BME280;31254;51.680;5.394;2022-11-15T09:36:03;100703.81;;;12.69;90.60
45523;BME280;31254;51.680;5.394;2022-11-15T09:38:33;100707.56;;;12.68;90.57
45523;BME280;31254;51.680;5.394;2022-11-15T09:46:26;100699.03;;;12.79;89.80
45523;BME280;31254;51.680;5.394;2022-11-15T09:48:58;100705.75;;;12.85;89.50
45523;BME280;31254;51.680;5.394;2022-11-15T09:51:32;100692.56;;;12.80;89.38
45523;BME280;31254;51.680;5.394;2022-11-15T09:54:04;100700.97;;;12.95;89.09
45523;BME280;31254;51.680;5.394;2022-11-15T09:56:51;100699.78;;;12.90;88.81
45523;BME280;31254;51.680;5.394;2022-11-15T10:02:27;100698.44;;;13.19;87.00
45523;BME280;31254;51.680;5.394;2022-11-15T10:05:03;100689.16;;;13.20;87.20
45523;BME280;31254;51.680;5.394;2022-11-15T10:07:51;100688.00;;;13.22;87.23
45523;BME280;31254;51.680;5.394;2022-11-15T10:10:27;100678.56;;;13.25;87.00
45523;BME280;31254;51.680;5.394;2022-11-15T10:12:58;100674.47;;;13.21;87.03
45523;BME280;31254;51.680;5.394;2022-11-15T10:15:25;100679.47;;;13.33;87.01
45523;BME280;31254;51.680;5.394;2022-11-15T10:17:59;100678.06;;;13.38;86.64
45523;BME280;31254;51.680;5.394;2022-11-15T10:20:34;100668.50;;;13.33;86.41
45523;BME280;31254;51.680;5.394;2022-11-15T10:23:10;100668.31;;;13.35;86.33
45523;BME280;31254;51.680;5.394;2022-11-15T10:25:39;100672.41;;;13.39;85.89
45523;BME280;31254;51.680;5.394;2022-11-15T10:30:58;100674.28;;;13.30;85.53
45523;BME280;31254;51.680;5.394;2022-11-15T10:33:37;100664.00;;;13.24;85.55
45523;BME280;31254;51.680;5.394;2022-11-15T10:36:18;100654.44;;;13.20;85.66
45523;BME280;31254;51.680;5.394;2022-11-15T10:39:25;100658.88;;;13.21;85.26
45523;BME280;31254;51.680;5.394;2022-11-15T10:41:52;100644.16;;;13.22;84.91
45523;BME280;31254;51.680;5.394;2022-11-15T10:44:32;100651.00;;;13.34;80.63
45523;BME280;31254;51.680;5.394;2022-11-15T10:47:47;100650.31;;;13.49;81.69
45523;BME280;31254;51.680;5.394;2022-11-15T10:50:30;100646.38;;;13.60;81.55
45523;BME280;31254;51.680;5.394;2022-11-15T10:53:01;100629.72;;;13.69;81.27
45523;BME280;31254;51.680;5.394;2022-11-15T10:55:33;100629.38;;;13.73;80.75
45523;BME280;31254;51.680;5.394;2022-11-15T11:00:52;100626.41;;;13.90;80.34
45523;BME280;31254;51.680;5.394;2022-11-15T11:03:34;100635.44;;;13.99;80.18
45523;BME280;31254;51.680;5.394;2022-11-15T11:06:10;100613.31;;;14.01;79.70
45523;BME280;31254;51.680;5.394;2022-11-15T11:08:37;100619.84;;;14.00;79.36
45523;BME280;31254;51.680;5.394;2022-11-15T11:11:05;100616.19;;;14.07;74.71
45523;BME280;31254;51.680;5.394;2022-11-15T11:13:39;100613.44;;;14.16;75.98
45523;BME280;31254;51.680;5.394;2022-11-15T11:22:16;100599.72;;;14.16;74.28
45523;BME280;31254;51.680;5.394;2022-11-15T11:24:50;100589.25;;;14.19;75.59
45523;BME280;31254;51.680;5.394;2022-11-15T11:30:21;100582.34;;;14.23;76.08
45523;BME280;31254;51.680;5.394;2022-11-15T11:33:05;100582.56;;;14.14;75.77
45523;BME280;31254;51.680;5.394;2022-11-15T11:44:28;100557.66;;;14.23;75.78
45523;BME280;31254;51.680;5.394;2022-11-15T11:46:56;100554.19;;;14.30;75.78
45523;BME280;31254;51.680;5.394;2022-11-15T11:52:34;100546.91;;;14.45;75.27
45523;BME280;31254;51.680;5.394;2022-11-15T11:55:23;100547.31;;;14.57;74.96
45523;BME280;31254;51.680;5.394;2022-11-15T11:58:15;100548.25;;;14.72;74.56
45523;BME280;31254;51.680;5.394;2022-11-15T12:00:51;100540.13;;;14.79;73.96
45523;BME280;31254;51.680;5.394;2022-11-15T12:03:38;100528.09;;;14.80;73.77
45523;BME280;31254;51.680;5.394;2022-11-15T12:06:28;100523.09;;;14.84;74.16
45523;BME280;31254;51.680;5.394;2022-11-15T12:09:23;100505.94;;;14.81;73.78
45523;BME280;31254;51.680;5.394;2022-11-15T12:12:01;100496.56;;;14.76;73.63
45523;BME280;31254;51.680;5.394;2022-11-15T12:14:37;100505.94;;;14.81;73.42
45523;BME280;31254;51.680;5.394;2022-11-15T12:17:09;100494.78;;;14.83;73.35
45523;BME280;31254;51.680;5.394;2022-11-15T12:19:38;100494.88;;;14.90;73.00
45523;BME280;31254;51.680;5.394;2022-11-15T12:22:20;100493.31;;;14.95;72.70
45523;BME280;31254;51.680;5.394;2022-11-15T12:24:57;100475.00;;;14.88;72.34
45523;BME280;31254;51.680;5.394;2022-11-15T12:27:45;100478.88;;;14.93;72.49
45523;BME280;31254;51.680;5.394;2022-11-15T12:30:21;100477.84;;;14.94;72.26
45523;BME280;31254;51.680;5.394;2022-11-15T12:33:02;100471.50;;;14.94;72.08
45523;BME280;31254;51.680;5.394;2022-11-15T12:35:41;100474.25;;;14.94;71.70
45523;BME280;31254;51.680;5.394;2022-11-15T12:38:12;100469.59;;;14.94;71.89
45523;BME280;31254;51.680;5.394;2022-11-15T12:41:17;100471.13;;;14.97;71.90
45523;BME280;31254;51.680;5.394;2022-11-15T12:43:45;100464.59;;;14.98;71.88
45523;BME280;31254;51.680;5.394;2022-11-15T12:46:19;100451.41;;;14.93;71.96
45523;BME280;31254;51.680;5.394;2022-11-15T12:48:52;100444.41;;;14.91;71.65
45523;BME280;31254;51.680;5.394;2022-11-15T12:51:20;100437.78;;;14.85;71.87
45523;BME280;31254;51.680;5.394;2022-11-15T12:53:48;100444.31;;;14.84;71.71
45523;BME280;31254;51.680;5.394;2022-11-15T12:58:53;100428.22;;;14.66;71.75
45523;BME280;31254;51.680;5.394;2022-11-15T13:14:56;100421.13;;;14.49;72.01
45523;BME280;31254;51.680;5.394;2022-11-15T13:22:42;100400.56;;;14.44;71.89
45523;BME280;31254;51.680;5.394;2022-11-15T13:33:59;100390.03;;;14.33;71.60
45523;BME280;31254;51.680;5.394;2022-11-15T13:36:30;100387.66;;;14.30;71.36
45523;BME280;31254;51.680;5.394;2022-11-15T13:39:03;100373.94;;;14.30;71.25
45523;BME280;31254;51.680;5.394;2022-11-15T13:41:33;100369.16;;;14.32;71.16
45523;BME280;31254;51.680;5.394;2022-11-15T13:44:03;100362.97;;;14.30;70.82
45523;BME280;31254;51.680;5.394;2022-11-15T13:46:33;100362.25;;;14.36;70.52
45523;BME280;31254;51.680;5.394;2022-11-15T13:49:05;100362.59;;;14.33;70.54
45523;BME280;31254;51.680;5.394;2022-11-15T13:57:10;100349.56;;;14.35;70.37
45523;BME280;31254;51.680;5.394;2022-11-15T13:59:57;100341.91;;;14.31;70.30
45523;BME280;31254;51.680;5.394;2022-11-15T14:04:57;100329.22;;;14.30;70.16
45523;BME280;31254;51.680;5.394;2022-11-15T14:07:27;100325.81;;;14.27;70.21
45523;BME280;31254;51.680;5.394;2022-11-15T14:09:57;100317.66;;;14.19;70.12
45523;BME280;31254;51.680;5.394;2022-11-15T14:12:34;100315.59;;;14.21;70.12
45523;BME280;31254;51.680;5.394;2022-11-15T14:15:28;100308.09;;;14.15;70.43
45523;BME280;31254;51.680;5.394;2022-11-15T14:17:57;100306.59;;;14.13;70.44
45523;BME280;31254;51.680;5.394;2022-11-15T14:20:36;100302.31;;;14.10;70.41
45523;BME280;31254;51.680;5.394;2022-11-15T14:25:54;100300.13;;;14.05;70.25
45523;BME280;31254;51.680;5.394;2022-11-15T14:30:52;100277.13;;;13.92;70.11
45523;BME280;31254;51.680;5.394;2022-11-15T14:33:23;100283.28;;;13.94;70.21
45523;BME280;31254;51.680;5.394;2022-11-15T14:35:52;100277.31;;;13.90;69.99
45523;BME280;31254;51.680;5.394;2022-11-15T14:38:22;100269.28;;;13.88;70.00
45523;BME280;31254;51.680;5.394;2022-11-15T14:40:50;100272.88;;;13.89;70.09
45523;BME280;31254;51.680;5.394;2022-11-15T14:43:20;100259.06;;;13.82;69.77
45523;BME280;31254;51.680;5.394;2022-11-15T14:45:46;100272.03;;;13.88;70.07
45523;BME280;31254;51.680;5.394;2022-11-15T14:48:13;100257.44;;;13.88;70.11
45523;BME280;31254;51.680;5.394;2022-11-15T14:50:43;100262.09;;;13.87;70.09
45523;BME280;31254;51.680;5.394;2022-11-15T14:53:17;100253.38;;;13.84;70.24
45523;BME280;31254;51.680;5.394;2022-11-15T14:55:44;100251.84;;;13.81;70.34